createdAt,value
2023-01-11T00:00:40.702Z,0.60
2023-01-11T00:03:08.959Z,0.25
2023-01-11T00:05:40.847Z,0.50
2023-01-11T00:08:09.752Z,0.47
2023-01-11T00:10:38.133Z,0.25
2023-01-11T00:13:07.670Z,0.32
2023-01-11T00:15:38.121Z,0.50
2023-01-11T00:18:06.294Z,0.10
2023-01-11T00:20:34.458Z,0.25
2023-01-11T00:23:02.778Z,0.40
2023-01-11T00:25:30.843Z,0.20
2023-01-11T00:27:58.827Z,0.35
2023-01-11T00:30:28.316Z,0.30
2023-01-11T00:32:57.210Z,0.40
2023-01-11T00:35:25.636Z,0.40
2023-01-11T00:37:53.691Z,0.30
2023-01-11T00:40:23.925Z,0.40
2023-01-11T00:43:09.164Z,0.13
2023-01-11T00:45:55.856Z,0.20
2023-01-11T00:48:23.967Z,0.32
2023-01-11T00:50:54.689Z,0.25
2023-01-11T00:53:23.011Z,0.28
2023-01-11T00:55:50.999Z,0.17
2023-01-11T00:58:19.001Z,0.20
2023-01-11T01:00:48.526Z,0.25
2023-01-11T01:03:16.875Z,0.38
2023-01-11T01:05:44.835Z,0.10
2023-01-11T01:08:12.898Z,0.17
2023-01-11T01:10:41.010Z,0.30
2023-01-11T01:13:29.281Z,0.28
2023-01-11T01:15:59.707Z,0.10
2023-01-11T01:18:27.816Z,0.20
2023-01-11T01:20:55.858Z,0.10
2023-01-11T01:23:23.900Z,0.10
2023-01-11T01:25:51.864Z,0.10
2023-01-11T01:28:22.176Z,0.13
2023-01-11T01:30:52.107Z,0.10
2023-01-11T01:33:21.587Z,0.10
2023-01-11T01:35:49.520Z,0.20
2023-01-11T01:38:17.604Z,0.20
2023-01-11T01:40:47.418Z,0.32
2023-01-11T01:43:18.346Z,0.30
2023-01-11T01:45:49.862Z,0.05
2023-01-11T01:48:23.305Z,0.20
2023-01-11T01:50:54.668Z,0.20
2023-01-11T01:53:29.310Z,0.20
2023-01-11T01:56:01.301Z,0.10
2023-01-11T01:58:33.447Z,0.20
2023-01-11T02:01:21.931Z,0.10
2023-01-11T02:03:53.420Z,0.10
2023-01-11T02:06:23.864Z,0.20
2023-01-11T02:08:58.047Z,0.20
2023-01-11T02:11:32.624Z,0.15
2023-01-11T02:14:03.963Z,0.20
2023-01-11T02:16:31.986Z,0.10
2023-01-11T02:19:02.288Z,0.03
2023-01-11T02:21:40.459Z,0.10
2023-01-11T02:24:26.343Z,0.20
2023-01-11T02:27:22.498Z,0.20
2023-01-11T02:30:03.355Z,0.17
2023-01-11T02:32:41.080Z,0.03
2023-01-11T02:35:18.278Z,0.20
2023-01-11T02:38:00.350Z,0.25
2023-01-11T02:40:37.999Z,0.10
2023-01-11T02:43:46.873Z,0.20
2023-01-11T02:46:24.039Z,0.10
2023-01-11T02:49:00.008Z,0.10
2023-01-11T02:51:33.512Z,0.20
2023-01-11T02:54:05.415Z,0.17
2023-01-11T02:56:37.362Z,0.10
2023-01-11T02:59:08.769Z,0.08
2023-01-11T03:01:46.995Z,0.22
2023-01-11T03:04:26.154Z,0.10
2023-01-11T03:07:00.243Z,0.20
2023-01-11T03:09:34.567Z,0.17
2023-01-11T03:12:35.306Z,0.10
2023-01-11T03:15:13.206Z,0.00
2023-01-11T03:17:51.920Z,0.10
2023-01-11T03:20:25.287Z,0.10
2023-01-11T03:23:05.633Z,0.20
2023-01-11T03:25:42.677Z,0.10
2023-01-11T03:28:18.035Z,0.28
2023-01-11T03:30:51.654Z,0.10
2023-01-11T03:33:27.672Z,0.10
2023-01-11T03:36:02.211Z,0.20
2023-01-11T03:38:36.527Z,0.10
2023-01-11T03:41:08.574Z,0.20
2023-01-11T03:43:40.095Z,0.10
2023-01-11T03:46:13.272Z,0.00
2023-01-11T03:48:48.492Z,0.10
2023-01-11T03:51:21.553Z,0.03
2023-01-11T03:53:51.437Z,0.08
2023-01-11T03:56:24.688Z,0.22
2023-01-11T03:58:52.806Z,0.10
2023-01-11T04:01:21.016Z,0.20
2023-01-11T04:03:50.429Z,0.20
2023-01-11T04:06:19.479Z,0.10
2023-01-11T04:08:47.441Z,0.10
2023-01-11T04:11:15.465Z,0.10
2023-01-11T04:13:43.711Z,0.45
2023-01-11T04:16:11.771Z,0.10
2023-01-11T04:18:39.634Z,0.20
2023-01-11T04:21:08.911Z,0.10
2023-01-11T04:23:36.904Z,0.15
2023-01-11T04:26:05.039Z,0.20
2023-01-11T04:28:33.111Z,0.00
2023-01-11T04:31:01.111Z,0.17
2023-01-11T04:33:29.132Z,0.17
2023-01-11T04:35:57.081Z,0.10
2023-01-11T04:38:27.249Z,0.10
2023-01-11T04:41:15.181Z,0.13
2023-01-11T04:43:42.175Z,0.10
2023-01-11T04:46:11.421Z,0.10
2023-01-11T04:48:40.396Z,0.28
2023-01-11T04:51:08.513Z,0.10
2023-01-11T04:53:37.971Z,0.00
2023-01-11T04:56:07.441Z,0.10
2023-01-11T04:58:38.106Z,0.00
2023-01-11T05:01:10.302Z,0.10
2023-01-11T05:03:38.289Z,0.05
2023-01-11T05:06:07.149Z,0.10
2023-01-11T05:08:36.948Z,0.10
2023-01-11T05:11:07.216Z,0.10
2023-01-11T05:13:44.951Z,1.58
2023-01-11T05:16:14.742Z,0.20
2023-01-11T05:18:43.745Z,2.60
2023-01-11T05:21:13.801Z,0.40
2023-01-11T05:23:43.957Z,0.60
2023-01-11T05:26:13.849Z,0.32
2023-01-11T05:28:41.703Z,0.38
2023-01-11T05:31:09.674Z,0.43
2023-01-11T05:33:37.639Z,0.73
2023-01-11T05:36:08.164Z,0.30
2023-01-11T05:38:36.387Z,0.70
2023-01-11T05:41:07.503Z,0.30
2023-01-11T05:43:57.355Z,0.20
2023-01-11T05:46:25.120Z,0.32
2023-01-11T05:48:53.444Z,0.30
2023-01-11T05:51:21.436Z,0.08
2023-01-11T05:53:49.631Z,0.30
2023-01-11T05:56:18.893Z,0.30
2023-01-11T05:58:49.269Z,1.02
2023-01-11T06:01:18.112Z,0.20
2023-01-11T06:03:46.635Z,0.28
2023-01-11T06:06:15.466Z,0.85
2023-01-11T06:08:43.609Z,0.50
2023-01-11T06:11:11.785Z,1.92
2023-01-11T06:13:41.091Z,1.25
2023-01-11T06:16:11.876Z,0.73
2023-01-11T06:18:41.392Z,0.98
2023-01-11T06:21:10.290Z,1.58
2023-01-11T06:23:39.712Z,0.20
2023-01-11T06:26:10.225Z,1.17
2023-01-11T06:28:40.263Z,0.30
2023-01-11T06:31:09.105Z,2.40
2023-01-11T06:33:37.899Z,0.77
2023-01-11T06:36:10.142Z,1.63
2023-01-11T06:38:38.670Z,2.35
2023-01-11T06:41:08.654Z,1.40
2023-01-11T06:43:37.664Z,1.23
2023-01-11T06:46:10.465Z,1.90
2023-01-11T06:48:38.544Z,1.08
2023-01-11T06:51:06.675Z,0.95
2023-01-11T06:53:34.578Z,1.15
2023-01-11T06:56:02.733Z,0.88
2023-01-11T06:58:30.775Z,0.40
2023-01-11T07:01:00.033Z,0.43
2023-01-11T07:03:29.742Z,0.90
2023-01-11T07:05:58.435Z,0.85
2023-01-11T07:08:26.997Z,0.43
2023-01-11T07:10:55.658Z,0.20
2023-01-11T07:13:23.980Z,1.10
2023-01-11T07:15:54.065Z,1.13
2023-01-11T07:18:22.168Z,0.95
2023-01-11T07:20:52.063Z,0.73
2023-01-11T07:23:20.572Z,1.02
2023-01-11T07:25:49.629Z,0.93
2023-01-11T07:28:17.587Z,1.08
2023-01-11T07:30:57.460Z,0.75
2023-01-11T07:33:26.664Z,0.43
2023-01-11T07:35:56.442Z,0.52
2023-01-11T07:38:24.480Z,0.70
2023-01-11T07:40:52.527Z,0.45
2023-01-11T07:43:23.171Z,0.40
2023-01-11T07:45:53.196Z,1.30
2023-01-11T07:48:25.306Z,0.65
2023-01-11T07:50:55.405Z,0.57
2023-01-11T07:53:25.892Z,0.70
2023-01-11T07:55:55.838Z,0.60
2023-01-11T07:58:23.898Z,0.55
2023-01-11T08:00:51.981Z,0.28
2023-01-11T08:03:20.080Z,0.20
2023-01-11T08:05:51.228Z,0.32
2023-01-11T08:08:20.970Z,0.25
2023-01-11T08:11:09.869Z,0.30
2023-01-11T08:13:55.198Z,0.47
2023-01-11T08:16:23.210Z,0.60
2023-01-11T08:18:51.323Z,0.45
2023-01-11T08:21:21.195Z,0.57
2023-01-11T08:23:50.536Z,0.28
2023-01-11T08:26:18.488Z,0.50
2023-01-11T08:28:47.324Z,0.43
2023-01-11T08:31:15.328Z,0.32
2023-01-11T08:33:43.353Z,0.35
2023-01-11T08:36:13.495Z,0.50
2023-01-11T08:38:41.762Z,0.28
2023-01-11T08:41:11.688Z,0.20
2023-01-11T08:43:39.950Z,0.30
2023-01-11T08:46:07.989Z,0.30
2023-01-11T08:48:36.453Z,0.30
2023-01-11T08:51:04.514Z,0.20
2023-01-11T08:53:32.416Z,0.30
2023-01-11T08:56:00.548Z,0.50
2023-01-11T08:58:30.226Z,0.60
2023-01-11T09:00:59.125Z,0.30
2023-01-11T09:03:28.659Z,0.40
2023-01-11T09:05:57.459Z,0.55
2023-01-11T09:08:26.273Z,0.50
2023-01-11T09:10:56.280Z,0.28
2023-01-11T09:13:24.292Z,0.73
2023-01-11T09:15:56.804Z,0.75
2023-01-11T09:18:26.873Z,0.50
2023-01-11T09:20:55.005Z,0.43
2023-01-11T09:23:22.919Z,0.40
2023-01-11T09:25:50.779Z,0.40
2023-01-11T09:28:18.699Z,0.40
2023-01-11T09:30:46.647Z,0.50
2023-01-11T09:33:16.014Z,0.32
2023-01-11T09:35:46.247Z,0.40
2023-01-11T09:38:15.107Z,0.47
2023-01-11T09:40:54.286Z,0.38
2023-01-11T09:43:27.358Z,0.50
2023-01-11T09:45:58.654Z,0.30
2023-01-11T09:48:37.005Z,0.20
2023-01-11T09:51:06.147Z,0.40
2023-01-11T09:53:38.177Z,0.40
2023-01-11T09:56:11.947Z,0.30
2023-01-11T09:58:53.721Z,0.30
2023-01-11T10:01:29.943Z,0.30
2023-01-11T10:04:36.697Z,0.40
2023-01-11T10:07:36.109Z,0.45
2023-01-11T10:18:28.738Z,0.52
2023-01-11T10:19:33.369Z,0.50
2023-01-11T10:22:07.784Z,0.40
2023-01-11T10:24:42.233Z,0.30
2023-01-11T10:27:20.365Z,0.25
2023-01-11T10:29:59.503Z,0.68
2023-01-11T10:32:45.794Z,0.15
2023-01-11T10:35:46.258Z,0.30
2023-01-11T10:38:40.851Z,0.20
2023-01-11T10:41:26.508Z,0.40
2023-01-11T10:44:11.395Z,0.40
2023-01-11T10:46:43.436Z,0.20
2023-01-11T10:49:39.522Z,0.13
2023-01-11T10:52:19.009Z,0.20
2023-01-11T10:54:51.112Z,0.40
2023-01-11T10:57:31.003Z,0.50
2023-01-11T11:00:13.417Z,1.42
2023-01-11T11:02:59.406Z,0.50
2023-01-11T11:05:36.276Z,0.40
2023-01-11T11:08:13.806Z,0.50
2023-01-11T11:10:52.296Z,0.40
2023-01-11T11:13:28.012Z,0.70
2023-01-11T11:16:03.494Z,0.20
2023-01-11T11:18:31.624Z,0.20
2023-01-11T11:21:05.795Z,0.40
2023-01-11T11:23:34.552Z,0.25
2023-01-11T11:26:05.546Z,0.28
2023-01-11T11:28:35.079Z,0.35
2023-01-11T11:31:06.251Z,0.30
2023-01-11T11:33:37.053Z,0.40
2023-01-11T11:36:07.916Z,0.17
2023-01-11T11:38:37.623Z,0.50
2023-01-11T11:41:08.632Z,0.38
2023-01-11T11:43:39.078Z,0.17
2023-01-11T11:46:22.600Z,0.40
2023-01-11T11:49:13.949Z,0.20
2023-01-11T11:51:43.770Z,0.22
2023-01-11T11:54:20.439Z,0.22
2023-01-11T11:56:49.027Z,0.22
2023-01-11T11:59:21.007Z,0.40
2023-01-11T12:01:55.637Z,0.20
2023-01-11T12:04:25.340Z,0.20
2023-01-11T12:07:06.131Z,0.40
2023-01-11T12:09:35.777Z,0.25
2023-01-11T12:12:05.133Z,0.82
2023-01-11T12:14:36.415Z,0.70
2023-01-11T12:17:22.876Z,0.60
2023-01-11T12:19:50.915Z,0.52
2023-01-11T12:22:20.757Z,0.55
2023-01-11T12:24:49.784Z,0.60
2023-01-11T12:27:30.796Z,0.45
2023-01-11T12:30:13.054Z,0.25
2023-01-11T12:33:00.642Z,0.30
2023-01-11T12:35:37.064Z,0.10
2023-01-11T12:38:30.601Z,0.20
2023-01-11T12:41:17.305Z,0.50
2023-01-11T12:43:56.432Z,0.38
2023-01-11T12:46:40.776Z,0.10
2023-01-11T12:49:37.407Z,0.30
2023-01-11T12:52:41.706Z,0.30
2023-01-11T12:55:34.430Z,0.10
2023-01-11T12:58:09.032Z,0.20
2023-01-11T13:01:21.535Z,0.20
2023-01-11T13:04:24.065Z,0.20
2023-01-11T13:07:01.142Z,0.10
2023-01-11T13:09:40.482Z,0.20
2023-01-11T13:12:18.336Z,0.30
2023-01-11T13:14:57.531Z,0.15
2023-01-11T13:17:33.116Z,0.25
2023-01-11T13:20:23.480Z,0.13
2023-01-11T13:22:55.179Z,0.13
2023-01-11T13:25:27.177Z,0.30
2023-01-11T13:27:58.091Z,0.10
2023-01-11T13:30:27.032Z,0.10
2023-01-11T13:32:59.096Z,0.20
2023-01-11T13:35:36.655Z,0.25
2023-01-11T13:38:12.476Z,0.10
2023-01-11T13:40:46.073Z,0.20
2023-01-11T13:43:21.071Z,0.10
2023-01-11T13:45:53.231Z,0.13
2023-01-11T13:48:27.431Z,0.17
2023-01-11T13:51:04.545Z,0.22
2023-01-11T13:53:37.920Z,0.20
2023-01-11T13:56:15.834Z,0.30
2023-01-11T13:58:52.547Z,0.30
2023-01-11T14:01:28.274Z,0.35
2023-01-11T14:04:01.982Z,0.20
2023-01-11T14:06:42.921Z,0.30
2023-01-11T14:09:45.808Z,0.65
2023-01-11T14:12:27.151Z,1.08
2023-01-11T14:15:19.705Z,4.00
2023-01-11T14:18:15.025Z,1.70
2023-01-11T14:20:50.159Z,3.25
2023-01-11T14:23:21.461Z,2.00
2023-01-11T14:26:20.060Z,1.90
2023-01-11T14:28:59.277Z,3.45
2023-01-11T14:31:48.403Z,2.67
2023-01-11T14:35:00.265Z,1.35
2023-01-11T14:37:51.990Z,3.35
2023-01-11T14:40:51.157Z,1.60
2023-01-11T14:43:36.414Z,1.30
2023-01-11T14:46:35.561Z,3.00
2023-01-11T14:49:15.281Z,2.40
2023-01-11T14:51:53.996Z,1.15
2023-01-11T14:54:26.039Z,0.90
2023-01-11T14:56:56.876Z,1.40
2023-01-11T14:59:35.781Z,0.90
2023-01-11T15:02:26.794Z,1.45
2023-01-11T15:05:06.488Z,1.38
2023-01-11T15:07:37.515Z,1.23
2023-01-11T15:10:28.166Z,1.33
2023-01-11T15:12:59.229Z,0.85
2023-01-11T15:15:51.212Z,1.20
2023-01-11T15:18:23.995Z,1.00
2023-01-11T15:20:53.903Z,0.95
2023-01-11T15:23:22.487Z,1.10
2023-01-11T15:26:00.995Z,1.05
2023-01-11T15:28:43.772Z,0.95
2023-01-11T15:33:56.111Z,1.10
2023-01-11T15:36:25.316Z,0.80
2023-01-11T15:39:00.807Z,0.63
2023-01-11T15:42:03.198Z,0.65
2023-01-11T15:44:55.424Z,1.00
2023-01-11T15:47:39.695Z,0.68
2023-01-11T15:50:35.795Z,0.60
2023-01-11T15:53:50.102Z,0.85
2023-01-11T15:56:38.431Z,0.60
2023-01-11T15:59:27.077Z,0.80
2023-01-11T16:02:41.013Z,0.73
2023-01-11T16:05:19.551Z,1.02
2023-01-11T16:07:56.795Z,1.25
2023-01-11T16:10:49.044Z,0.40
2023-01-11T16:13:32.166Z,0.85
2023-01-11T16:16:11.665Z,1.73
2023-01-11T16:18:44.350Z,0.80
2023-01-11T16:21:19.061Z,0.60
2023-01-11T16:23:47.433Z,0.80
2023-01-11T16:26:20.905Z,0.55
2023-01-11T16:28:51.685Z,0.80
2023-01-11T16:31:20.030Z,0.60
2023-01-11T16:33:49.880Z,0.77
2023-01-11T16:36:21.950Z,1.00
2023-01-11T16:39:02.777Z,0.80
2023-01-11T16:41:37.827Z,0.65
2023-01-11T16:44:09.607Z,0.70
2023-01-11T16:47:16.929Z,1.33
2023-01-11T16:49:49.027Z,1.60
2023-01-11T16:52:47.767Z,2.72
2023-01-11T16:55:25.921Z,2.53
2023-01-11T16:57:58.007Z,2.17
2023-01-11T17:00:32.610Z,2.25
2023-01-11T17:03:17.541Z,3.63
2023-01-11T17:05:58.301Z,3.50
2023-01-11T17:08:30.634Z,2.03
2023-01-11T17:11:02.535Z,1.38
2023-01-11T17:13:55.980Z,1.52
2023-01-11T17:16:27.513Z,2.15
2023-01-11T17:18:56.012Z,1.70
2023-01-11T17:21:26.998Z,1.40
2023-01-11T17:24:00.707Z,1.90
2023-01-11T17:26:31.902Z,1.90
2023-01-11T17:29:01.563Z,1.52
2023-01-11T17:31:32.187Z,1.48
2023-01-11T17:34:08.245Z,1.38
2023-01-11T17:36:37.377Z,1.02
2023-01-11T17:39:07.381Z,1.23
2023-01-11T17:41:53.241Z,1.50
2023-01-11T17:44:41.679Z,1.25
2023-01-11T17:47:12.376Z,1.73
2023-01-11T17:49:40.598Z,1.40
2023-01-11T17:52:17.991Z,1.38
2023-01-11T17:54:47.579Z,1.95
2023-01-11T17:57:15.611Z,1.63
2023-01-11T17:59:43.760Z,1.80
2023-01-11T18:02:14.998Z,1.60
2023-01-11T18:04:44.275Z,2.20
2023-01-11T18:07:18.557Z,1.88
2023-01-11T18:09:49.491Z,2.78
2023-01-11T18:12:21.474Z,2.75
2023-01-11T18:14:52.569Z,2.63
2023-01-11T18:17:36.209Z,2.45
2023-01-11T18:20:32.973Z,1.98
2023-01-11T18:23:05.193Z,2.33
2023-01-11T18:25:35.911Z,2.33
2023-01-11T18:28:28.298Z,2.75
2023-01-11T18:31:00.043Z,1.73
2023-01-11T18:33:30.785Z,2.80
2023-01-11T18:36:00.819Z,2.53
2023-01-11T18:38:31.466Z,2.67
2023-01-11T18:41:25.007Z,2.50
2023-01-11T18:43:53.722Z,2.38
2023-01-11T18:46:22.183Z,3.35
2023-01-11T18:48:50.278Z,2.38
2023-01-11T18:51:21.111Z,3.38
2023-01-11T18:53:49.069Z,2.78
2023-01-11T18:56:18.773Z,2.90
2023-01-11T18:58:46.754Z,2.47
2023-01-11T19:01:15.022Z,3.20
2023-01-11T19:03:45.867Z,3.60
2023-01-11T19:06:15.091Z,3.05
2023-01-11T19:08:43.170Z,3.38
2023-01-11T19:11:13.859Z,3.15
2023-01-11T19:13:45.641Z,3.03
2023-01-11T19:18:42.545Z,2.60
2023-01-11T19:21:11.863Z,2.78
2023-01-11T19:23:39.886Z,2.85
2023-01-11T19:26:08.382Z,2.83
2023-01-11T19:28:36.456Z,2.33
2023-01-11T19:31:11.185Z,2.38
2023-01-11T19:33:40.176Z,2.80
2023-01-11T19:36:08.972Z,2.53
2023-01-11T19:38:38.524Z,1.67
2023-01-11T19:41:08.463Z,2.65
2023-01-11T19:43:36.788Z,2.30
2023-01-11T19:46:04.952Z,2.58
2023-01-11T19:48:34.532Z,2.45
2023-01-11T19:51:03.150Z,2.35
2023-01-11T19:53:31.561Z,2.22
2023-01-11T19:56:02.141Z,2.50
2023-01-11T19:58:30.492Z,2.53
2023-01-11T20:00:58.672Z,1.58
2023-01-11T20:03:27.005Z,2.05
2023-01-11T20:06:07.659Z,2.08
2023-01-11T20:08:41.271Z,2.03
2023-01-11T20:11:11.557Z,1.77
2023-01-11T20:13:40.511Z,1.50
2023-01-11T20:16:10.751Z,1.23
2023-01-11T20:18:39.099Z,1.80
2023-01-11T20:21:10.309Z,1.70
2023-01-11T20:23:38.599Z,1.75
2023-01-11T20:26:14.690Z,2.22
2023-01-11T20:28:43.386Z,1.98
2023-01-11T20:31:11.832Z,1.75
2023-01-11T20:33:39.866Z,1.83
2023-01-11T20:36:14.404Z,2.00
2023-01-11T20:38:42.968Z,1.95
2023-01-11T20:41:11.717Z,1.63
2023-01-11T20:43:40.833Z,2.45
2023-01-11T20:46:09.285Z,1.60
2023-01-11T20:48:37.253Z,2.08
2023-01-11T20:51:06.016Z,2.33
2023-01-11T20:53:35.445Z,1.77
2023-01-11T20:56:05.770Z,1.98
2023-01-11T20:58:34.383Z,1.85
2023-01-11T21:01:05.085Z,1.58
2023-01-11T21:03:33.297Z,1.75
2023-01-11T21:06:03.722Z,2.95
2023-01-11T21:08:31.848Z,1.92
2023-01-11T21:11:06.300Z,1.63
2023-01-11T21:13:34.735Z,2.22
2023-01-11T21:16:08.497Z,1.88
2023-01-11T21:18:36.779Z,2.10
2023-01-11T21:21:05.266Z,2.15
2023-01-11T21:23:33.292Z,2.33
2023-01-11T21:26:01.314Z,2.13
2023-01-11T21:28:30.728Z,2.08
2023-01-11T21:31:04.279Z,1.85
2023-01-11T21:33:32.383Z,1.70
2023-01-11T21:36:04.033Z,2.25
2023-01-11T21:38:32.823Z,2.90
2023-01-11T21:41:08.461Z,2.33
2023-01-11T21:43:38.720Z,1.40
2023-01-11T21:46:07.666Z,1.95
2023-01-11T21:48:35.573Z,1.30
2023-01-11T21:51:03.892Z,1.92
2023-01-11T21:53:33.263Z,1.77
2023-01-11T21:56:03.538Z,1.50
2023-01-11T21:58:31.533Z,1.00
2023-01-11T22:01:01.196Z,1.48
2023-01-11T22:03:29.992Z,1.50
2023-01-11T22:06:01.807Z,1.10
2023-01-11T22:08:30.170Z,1.45
2023-01-11T22:10:59.277Z,1.00
2023-01-11T22:13:29.182Z,1.40
2023-01-11T22:16:02.152Z,1.50
2023-01-11T22:18:31.011Z,1.50
2023-01-11T22:21:05.806Z,0.82
2023-01-11T22:23:33.906Z,1.30
2023-01-11T22:26:04.973Z,0.80
2023-01-11T22:28:33.134Z,1.10
2023-01-11T22:31:06.878Z,1.40
2023-01-11T22:33:37.243Z,1.75
2023-01-11T22:36:05.842Z,1.20
2023-01-11T22:38:33.971Z,1.65
2023-01-11T22:41:03.115Z,1.60
2023-01-11T22:43:31.127Z,1.60
2023-01-11T22:45:59.631Z,1.23
2023-01-11T22:48:31.371Z,1.23
2023-01-11T22:50:59.479Z,1.70
2023-01-11T22:53:27.422Z,1.70
2023-01-11T22:55:55.385Z,1.98
2023-01-11T22:58:23.327Z,1.90
2023-01-11T23:00:51.345Z,1.42
2023-01-11T23:03:19.466Z,1.90
2023-01-11T23:05:48.894Z,1.52
2023-01-11T23:08:17.317Z,1.67
2023-01-11T23:10:45.209Z,2.17
2023-01-11T23:13:30.659Z,1.83
2023-01-11T23:15:58.600Z,1.67
2023-01-11T23:18:26.603Z,2.10
2023-01-11T23:20:55.998Z,1.77
2023-01-11T23:23:23.987Z,2.03
2023-01-11T23:25:55.143Z,2.20
2023-01-11T23:28:23.107Z,2.17
2023-01-11T23:30:51.140Z,1.88
2023-01-11T23:33:19.079Z,2.42
2023-01-11T23:35:58.170Z,1.65
2023-01-11T23:38:26.527Z,1.75
2023-01-11T23:41:11.933Z,1.65
2023-01-11T23:43:40.005Z,2.22
2023-01-11T23:46:21.925Z,2.20
2023-01-11T23:48:49.869Z,2.10
2023-01-11T23:51:19.243Z,1.75
2023-01-11T23:53:47.197Z,1.35
2023-01-11T23:56:16.020Z,2.15
2023-01-11T23:58:44.021Z,1.63
